FMNM

Amborovy Airport

Madagascar
METAR FMNM 201400Z 28004KT 9999 FEW023 25/17 Q1017 NOSIG
Observed Flight Rules
Jul-20 @ 14:00 UTC (44 minutes ago) Visual Flight Rules
Wind Visibility Clouds
280° at 4 knots 10,000+ meters
  • Few at 2,300' AGL
Temperatures Readings
Current 25°C / 77°F
Dewpoint 17°C / 63°F
Humidity 61%
Altimeter 30.03" Hg
Pressure 1017 hPa
Elevation 18
METAR FMNM 201400Z 28004KT 9999 FEW023 25/17 Q1017 NOSIG
Observed Flight Rules
Jul-20 @ 14:00 UTC
(44 minutes ago)
VFR
Wind Visibility
280° at 4 knots 10,000+ meters
Clouds
  • Few at 2,300' AGL
Temperature Dewpoint
25°C / 77°F 17°C / 63°F
Humidity Altimeter Pressure
61% 30.03" Hg 1017 hPa